createdAt,value
2023-05-24T00:00:43.199Z,55.27
2023-05-24T00:01:42.823Z,43.92
2023-05-24T00:02:42.919Z,59.56
2023-05-24T00:03:42.970Z,53.87
2023-05-24T00:04:42.800Z,59.54
2023-05-24T00:05:42.877Z,48.29
2023-05-24T00:06:42.776Z,50.72
2023-05-24T00:07:43.600Z,48.05
2023-05-24T00:08:43.650Z,41.23
2023-05-24T00:09:42.903Z,43.55
2023-05-24T00:10:42.936Z,39.30
2023-05-24T00:11:42.733Z,39.44
2023-05-24T00:12:42.749Z,48.90
2023-05-24T00:13:42.847Z,53.35
2023-05-24T00:14:42.828Z,57.94
2023-05-24T00:15:43.615Z,55.96
2023-05-24T00:16:43.595Z,44.71
2023-05-24T00:17:42.788Z,55.81
2023-05-24T00:18:42.672Z,54.82
2023-05-24T00:19:42.662Z,52.58
2023-05-24T00:22:33.711Z,45.68
2023-05-24T00:23:33.726Z,50.38
2023-05-24T00:24:35.003Z,53.44
2023-05-24T00:25:34.772Z,46.12
2023-05-24T00:26:34.770Z,42.68
2023-05-24T00:27:34.761Z,55.88
2023-05-24T00:28:34.774Z,56.59
2023-05-24T00:29:34.741Z,44.09
2023-05-24T00:30:34.736Z,58.73
2023-05-24T00:31:34.766Z,56.91
2023-05-24T00:32:34.781Z,46.97
2023-05-24T00:33:34.745Z,44.33
2023-05-24T00:34:34.725Z,48.05
2023-05-24T00:35:34.713Z,42.99
2023-05-24T00:36:34.717Z,57.07
2023-05-24T00:37:34.699Z,41.02
2023-05-24T00:38:34.718Z,50.52
2023-05-24T00:39:34.661Z,53.22
2023-05-24T00:40:34.666Z,40.68
2023-05-24T00:41:34.653Z,39.30
2023-05-24T00:42:34.649Z,48.57
2023-05-24T00:43:34.966Z,52.76
2023-05-24T00:44:34.640Z,50.58
2023-05-24T00:45:34.641Z,51.57
2023-05-24T00:46:34.742Z,52.24
2023-05-24T00:47:34.646Z,53.48
2023-05-24T00:48:34.599Z,45.74
2023-05-24T00:49:34.602Z,43.46
2023-05-24T00:50:34.588Z,54.11
2023-05-24T00:51:34.564Z,52.74
2023-05-24T00:52:34.566Z,55.32
2023-05-24T00:53:34.561Z,43.78
2023-05-24T00:54:34.555Z,42.68
2023-05-24T00:55:34.597Z,52.48
2023-05-24T00:56:34.555Z,55.11
2023-05-24T00:57:34.519Z,55.60
2023-05-24T00:58:34.535Z,42.76
2023-05-24T00:59:34.508Z,49.01
2023-05-24T01:00:34.501Z,54.85
2023-05-24T01:01:34.523Z,45.68
2023-05-24T01:02:34.539Z,42.38
2023-05-24T01:03:34.582Z,49.12
2023-05-24T01:04:34.465Z,47.27
2023-05-24T01:05:35.445Z,51.72
2023-05-24T01:06:34.453Z,42.57
2023-05-24T01:07:34.436Z,50.10
2023-05-24T01:08:35.319Z,56.37
2023-05-24T01:09:34.579Z,46.99
2023-05-24T01:10:34.478Z,52.75
2023-05-24T01:11:34.472Z,46.75
2023-05-24T01:12:35.065Z,50.36
2023-05-24T01:13:36.314Z,50.94
2023-05-24T01:14:35.349Z,56.56
2023-05-24T01:15:35.018Z,58.21
2023-05-24T01:16:35.068Z,52.31
2023-05-24T01:17:35.386Z,52.21
2023-05-24T01:18:34.372Z,43.03
2023-05-24T01:19:34.365Z,45.65
2023-05-24T01:20:34.625Z,45.67
2023-05-24T01:21:34.897Z,61.86
2023-05-24T01:22:34.396Z,55.22
2023-05-24T01:23:35.319Z,41.17
2023-05-24T01:24:36.819Z,56.10
2023-05-24T01:25:34.359Z,49.18
2023-05-24T01:26:34.335Z,57.37
2023-05-24T01:27:34.309Z,41.37
2023-05-24T01:28:34.278Z,48.55
2023-05-24T01:29:34.270Z,54.87
2023-05-24T01:30:34.280Z,61.50
2023-05-24T01:31:34.284Z,57.68
2023-05-24T01:32:34.310Z,54.48
2023-05-24T01:33:34.453Z,53.26
2023-05-24T01:34:34.303Z,52.07
2023-05-24T01:35:34.235Z,51.30
2023-05-24T01:36:34.256Z,56.14
2023-05-24T01:37:34.209Z,54.41
2023-05-24T01:38:34.223Z,55.54
2023-05-24T01:39:34.278Z,50.83
2023-05-24T01:40:34.207Z,55.57
2023-05-24T01:41:34.201Z,44.29
2023-05-24T01:42:34.162Z,52.96
2023-05-24T01:43:34.169Z,50.46
2023-05-24T01:44:34.252Z,42.31
2023-05-24T01:45:34.133Z,51.83
2023-05-24T01:46:34.187Z,52.89
2023-05-24T01:47:34.135Z,40.42
2023-05-24T01:48:34.126Z,62.83
2023-05-24T01:49:34.826Z,52.83
2023-05-24T01:50:34.161Z,46.72
2023-05-24T01:51:34.126Z,46.55
2023-05-24T01:52:34.130Z,54.53
2023-05-24T01:53:35.835Z,50.67
2023-05-24T01:54:34.073Z,42.25
2023-05-24T01:55:34.087Z,52.84
2023-05-24T01:56:34.077Z,50.43
2023-05-24T01:57:34.045Z,42.84
2023-05-24T01:58:34.031Z,45.99
2023-05-24T01:59:34.033Z,59.32
2023-05-24T02:00:34.038Z,49.88
2023-05-24T02:01:34.087Z,48.07
2023-05-24T02:02:34.066Z,53.49
2023-05-24T02:03:34.032Z,50.24
2023-05-24T02:04:34.994Z,52.63
2023-05-24T02:05:34.910Z,43.27
2023-05-24T02:06:34.464Z,45.83
2023-05-24T02:07:34.868Z,49.89
2023-05-24T02:08:34.920Z,54.88
2023-05-24T02:09:33.948Z,54.47
2023-05-24T02:10:33.963Z,53.73
2023-05-24T02:11:33.934Z,52.97
2023-05-24T02:12:33.933Z,49.43
2023-05-24T02:13:33.986Z,48.59
2023-05-24T02:14:33.906Z,61.79
2023-05-24T02:15:33.936Z,55.92
2023-05-24T02:16:33.947Z,49.19
2023-05-24T02:17:33.959Z,53.77
2023-05-24T02:18:33.881Z,51.93
2023-05-24T02:19:33.993Z,60.29
2023-05-24T02:20:34.086Z,55.59
2023-05-24T02:21:34.853Z,58.44
2023-05-24T02:22:33.852Z,52.19
2023-05-24T02:23:33.874Z,59.19
2023-05-24T02:24:34.454Z,56.91
2023-05-24T02:25:34.399Z,43.93
2023-05-24T02:26:33.832Z,45.13
2023-05-24T02:27:33.827Z,54.49
2023-05-24T02:28:34.335Z,58.53
2023-05-24T02:29:33.814Z,55.49
2023-05-24T02:30:34.467Z,52.69
2023-05-24T02:31:33.829Z,45.69
2023-05-24T02:32:33.794Z,43.58
2023-05-24T02:33:33.868Z,59.33
2023-05-24T02:34:33.797Z,47.52
2023-05-24T02:35:33.756Z,51.87
2023-05-24T02:36:33.741Z,48.93
2023-05-24T02:37:33.741Z,54.61
2023-05-24T02:38:33.726Z,54.05
2023-05-24T02:39:33.831Z,60.09
2023-05-24T02:40:33.712Z,57.89
2023-05-24T02:41:34.446Z,47.68
2023-05-24T02:42:33.703Z,55.85
2023-05-24T02:43:34.338Z,58.78
2023-05-24T02:44:33.688Z,54.08
2023-05-24T02:45:33.668Z,52.56
2023-05-24T02:46:33.719Z,54.50
2023-05-24T02:47:33.719Z,59.38
2023-05-24T02:48:34.376Z,54.14
2023-05-24T02:49:33.652Z,50.98
2023-05-24T02:50:33.627Z,60.04
2023-05-24T02:51:34.371Z,56.73
2023-05-24T02:52:33.618Z,58.88
2023-05-24T02:53:33.634Z,57.75
2023-05-24T02:54:33.592Z,58.68
2023-05-24T02:55:33.589Z,60.47
2023-05-24T02:56:33.587Z,61.03
2023-05-24T02:57:33.603Z,56.06
2023-05-24T02:58:33.566Z,56.40
2023-05-24T02:59:33.584Z,55.53
2023-05-24T03:00:33.554Z,61.90
2023-05-24T03:01:33.592Z,59.36
2023-05-24T03:02:33.653Z,53.17
2023-05-24T03:03:34.436Z,57.38
2023-05-24T03:04:33.526Z,61.34
2023-05-24T03:05:33.551Z,64.75
2023-05-24T03:06:33.509Z,60.60
2023-05-24T03:07:33.512Z,61.33
2023-05-24T03:08:33.503Z,61.82
2023-05-24T03:09:33.507Z,60.71
2023-05-24T03:10:33.479Z,63.36
2023-05-24T03:11:33.484Z,57.57
2023-05-24T03:12:33.453Z,58.67
2023-05-24T03:13:34.584Z,56.71
2023-05-24T03:14:33.449Z,61.32
2023-05-24T03:15:33.450Z,58.31
2023-05-24T03:16:33.470Z,55.89
2023-05-24T03:17:33.467Z,60.37
2023-05-24T03:18:35.914Z,56.99
2023-05-24T03:19:33.488Z,58.73
2023-05-24T03:20:33.571Z,59.78
2023-05-24T03:21:33.402Z,63.49
2023-05-24T03:22:33.366Z,58.94
2023-05-24T03:23:33.361Z,53.19
2023-05-24T03:24:33.350Z,55.21
2023-05-24T03:25:33.385Z,56.21
2023-05-24T03:26:33.386Z,59.43
2023-05-24T03:27:33.331Z,61.90
2023-05-24T03:28:33.327Z,59.06
2023-05-24T03:29:33.325Z,59.29
2023-05-24T03:30:33.430Z,61.30
2023-05-24T03:31:33.373Z,57.56
2023-05-24T03:32:33.457Z,60.83
2023-05-24T03:33:33.302Z,63.77
2023-05-24T03:34:33.281Z,64.19
2023-05-24T03:35:33.266Z,62.55
2023-05-24T03:36:33.889Z,65.02
2023-05-24T03:37:33.260Z,62.09
2023-05-24T03:38:33.241Z,67.66
2023-05-24T03:39:34.076Z,60.90
2023-05-24T03:40:33.241Z,59.61
2023-05-24T03:41:33.237Z,59.77
2023-05-24T03:42:33.257Z,61.74
2023-05-24T03:43:33.233Z,61.56
2023-05-24T03:44:33.240Z,58.98
2023-05-24T03:45:39.029Z,61.76
2023-05-24T03:46:35.301Z,61.82
2023-05-24T03:47:33.222Z,62.95
2023-05-24T03:48:33.170Z,61.30
2023-05-24T03:49:34.174Z,67.53
2023-05-24T03:50:33.154Z,62.05
2023-05-24T03:51:33.148Z,63.24
2023-05-24T03:52:33.889Z,63.42
2023-05-24T03:53:33.131Z,63.84
2023-05-24T03:54:34.122Z,56.92
2023-05-24T03:55:33.129Z,61.38
2023-05-24T03:56:33.122Z,59.55
2023-05-24T03:57:33.109Z,61.82
2023-05-24T03:58:33.124Z,64.44
2023-05-24T03:59:33.087Z,62.53
2023-05-24T04:00:33.144Z,65.34
2023-05-24T04:01:34.426Z,64.61
2023-05-24T04:02:34.162Z,65.24
2023-05-24T04:03:33.116Z,66.96
2023-05-24T04:04:33.052Z,62.19
2023-05-24T04:05:33.075Z,60.71
2023-05-24T04:06:33.072Z,64.29
2023-05-24T04:07:33.018Z,61.09
2023-05-24T04:08:33.002Z,60.89
2023-05-24T04:09:32.992Z,63.49
2023-05-24T04:10:33.073Z,61.93
2023-05-24T04:11:32.986Z,61.94
2023-05-24T04:12:32.984Z,68.61
2023-05-24T04:13:32.969Z,66.91
2023-05-24T04:14:32.965Z,62.18
2023-05-24T04:15:32.959Z,61.94
2023-05-24T04:16:33.926Z,58.39
2023-05-24T04:17:33.040Z,61.58
2023-05-24T04:18:33.074Z,64.50
2023-05-24T04:19:32.922Z,63.03
2023-05-24T04:20:33.003Z,61.08
2023-05-24T04:21:32.918Z,66.19
2023-05-24T04:22:34.882Z,61.55
2023-05-24T04:23:39.469Z,65.33
2023-05-24T04:24:32.905Z,65.50
2023-05-24T04:25:32.887Z,61.23
2023-05-24T04:26:32.876Z,62.96
2023-05-24T04:27:32.855Z,64.74
2023-05-24T04:28:32.853Z,63.78
2023-05-24T04:29:32.844Z,64.70
2023-05-24T04:30:32.869Z,65.98
2023-05-24T04:31:33.547Z,62.49
2023-05-24T04:32:32.913Z,65.61
2023-05-24T04:33:32.836Z,66.03
2023-05-24T04:34:32.798Z,62.05
2023-05-24T04:35:32.816Z,64.61
2023-05-24T04:36:33.410Z,65.11
2023-05-24T04:37:32.788Z,64.92
2023-05-24T04:38:32.772Z,63.90
2023-05-24T04:39:33.525Z,65.19
2023-05-24T04:40:33.504Z,63.72
2023-05-24T04:41:32.758Z,65.13
2023-05-24T04:42:34.402Z,67.73
2023-05-24T04:43:32.726Z,62.55
2023-05-24T04:44:32.735Z,61.92
2023-05-24T04:45:32.749Z,65.62
2023-05-24T04:46:32.761Z,63.87
2023-05-24T04:47:32.774Z,59.96
2023-05-24T04:48:32.695Z,64.90
2023-05-24T04:49:32.689Z,66.70
2023-05-24T04:50:32.712Z,67.80
2023-05-24T04:51:32.698Z,65.53
2023-05-24T04:52:32.670Z,64.25
2023-05-24T04:53:32.773Z,65.95
2023-05-24T04:54:33.482Z,66.28
2023-05-24T04:55:32.712Z,64.26
2023-05-24T04:56:32.770Z,63.23
2023-05-24T04:57:32.659Z,64.73
2023-05-24T04:58:32.636Z,65.33
2023-05-24T04:59:32.631Z,63.25
2023-05-24T05:00:32.594Z,66.74
2023-05-24T05:01:32.629Z,66.09
2023-05-24T05:02:34.441Z,65.59
2023-05-24T05:03:33.534Z,68.10
2023-05-24T05:04:32.825Z,67.31
2023-05-24T05:05:32.585Z,67.79
2023-05-24T05:06:32.601Z,65.42
2023-05-24T05:07:33.554Z,66.52
2023-05-24T05:08:32.630Z,66.97
2023-05-24T05:09:32.552Z,67.42
2023-05-24T05:10:32.572Z,63.55
2023-05-24T05:11:32.579Z,67.16
2023-05-24T05:12:32.510Z,66.95
2023-05-24T05:13:32.527Z,65.47
2023-05-24T05:14:32.522Z,66.78
2023-05-24T05:15:32.538Z,65.70
2023-05-24T05:16:32.530Z,66.80
2023-05-24T05:17:32.514Z,65.59
2023-05-24T05:18:32.452Z,67.21
2023-05-24T05:19:32.983Z,66.46
2023-05-24T05:20:32.483Z,67.47
2023-05-24T05:21:32.453Z,68.43
2023-05-24T05:22:32.992Z,66.30
2023-05-24T05:23:32.449Z,67.62
2023-05-24T05:24:32.413Z,66.85
2023-05-24T05:25:32.432Z,67.90
2023-05-24T05:26:32.507Z,68.37
2023-05-24T05:27:33.973Z,69.75
2023-05-24T05:28:33.389Z,66.33
2023-05-24T05:29:32.392Z,67.32
2023-05-24T05:30:32.391Z,68.25
2023-05-24T05:31:32.462Z,66.29
2023-05-24T05:32:33.110Z,69.15
2023-05-24T05:33:32.422Z,68.55
2023-05-24T05:34:33.928Z,68.81
2023-05-24T05:35:32.343Z,65.82
2023-05-24T05:36:32.366Z,66.22
2023-05-24T05:37:33.918Z,68.40
2023-05-24T05:38:32.305Z,68.37
2023-05-24T05:39:34.004Z,68.33
2023-05-24T05:40:32.292Z,66.54
2023-05-24T05:41:32.283Z,67.42
2023-05-24T05:42:32.350Z,66.31
2023-05-24T05:43:32.317Z,66.25
2023-05-24T05:44:32.252Z,65.68
2023-05-24T05:45:32.268Z,67.42
2023-05-24T05:46:32.338Z,65.33
2023-05-24T05:47:32.237Z,66.01
2023-05-24T05:48:32.248Z,64.75
2023-05-24T05:49:32.215Z,66.33
2023-05-24T05:50:32.232Z,68.37
2023-05-24T05:51:32.196Z,66.26
2023-05-24T05:52:32.209Z,66.18
2023-05-24T05:53:34.061Z,66.73
2023-05-24T05:54:32.185Z,65.57
2023-05-24T05:55:33.254Z,68.16
2023-05-24T05:56:32.266Z,69.06
2023-05-24T05:57:33.014Z,67.44
2023-05-24T05:58:32.185Z,65.49
2023-05-24T05:59:32.145Z,66.51
2023-05-24T06:00:32.154Z,66.95
2023-05-24T06:01:34.036Z,65.84
2023-05-24T06:02:32.213Z,67.08
2023-05-24T06:03:33.209Z,65.42
2023-05-24T06:04:32.142Z,69.34
2023-05-24T06:05:32.092Z,68.75
2023-05-24T06:06:32.093Z,67.73
2023-05-24T06:07:32.117Z,67.16
2023-05-24T06:08:32.091Z,66.65
2023-05-24T06:09:32.061Z,67.16
2023-05-24T06:10:32.070Z,68.03
2023-05-24T06:11:32.037Z,65.38
2023-05-24T06:12:32.032Z,66.29
2023-05-24T06:13:32.034Z,67.30
2023-05-24T06:14:33.006Z,64.00
2023-05-24T06:15:33.051Z,65.72
2023-05-24T06:16:32.081Z,65.44
2023-05-24T06:17:33.882Z,66.00
2023-05-24T06:18:32.217Z,67.59
2023-05-24T06:19:35.518Z,66.53
2023-05-24T06:21:05.448Z,66.43
2023-05-24T06:21:32.952Z,66.34
2023-05-24T06:22:31.948Z,67.16
2023-05-24T06:23:31.949Z,64.92
2023-05-24T06:24:31.940Z,66.08
2023-05-24T06:25:31.939Z,66.49
2023-05-24T06:28:38.642Z,65.18
2023-05-24T06:29:39.319Z,64.92
2023-05-24T06:30:40.708Z,64.30
2023-05-24T06:31:40.332Z,65.36
2023-05-24T06:32:40.378Z,66.10
2023-05-24T06:33:42.677Z,66.21
2023-05-24T06:34:42.273Z,67.84
2023-05-24T06:35:39.687Z,65.90
2023-05-24T06:36:39.925Z,67.83
2023-05-24T06:37:39.646Z,65.68
2023-05-24T06:38:40.295Z,65.53
2023-05-24T06:41:46.519Z,66.54
2023-05-24T06:42:46.512Z,64.31
2023-05-24T06:43:48.350Z,65.96
2023-05-24T06:44:47.587Z,63.89
2023-05-24T06:45:47.587Z,66.23
2023-05-24T06:46:47.589Z,63.55
2023-05-24T06:47:47.656Z,64.62
2023-05-24T06:48:47.697Z,66.44
2023-05-24T06:52:01.119Z,65.45
2023-05-24T06:52:56.837Z,65.52
2023-05-24T06:53:56.817Z,67.35
2023-05-24T06:54:56.797Z,65.74
2023-05-24T06:55:57.910Z,66.22
2023-05-24T06:56:57.916Z,68.31
2023-05-24T06:57:57.873Z,68.77
2023-05-24T06:59:00.765Z,66.87
2023-05-24T06:59:57.871Z,67.08
2023-05-24T07:00:59.656Z,66.45
2023-05-24T07:01:59.943Z,65.45
2023-05-24T07:02:57.922Z,68.34
2023-05-24T07:03:58.825Z,67.87
2023-05-24T07:04:57.901Z,62.67
2023-05-24T07:05:57.815Z,65.30
2023-05-24T07:06:57.827Z,66.31
2023-05-24T07:07:57.832Z,65.97
2023-05-24T07:08:57.792Z,65.22
2023-05-24T07:09:57.784Z,64.78
2023-05-24T07:10:58.727Z,66.40
2023-05-24T07:11:59.619Z,64.57
2023-05-24T07:12:57.761Z,66.34
2023-05-24T07:16:06.503Z,64.68
2023-05-24T07:17:05.824Z,64.89
2023-05-24T07:18:05.786Z,66.60
2023-05-24T07:19:05.724Z,64.59
2023-05-24T07:20:05.766Z,65.20
2023-05-24T07:21:06.041Z,65.95
2023-05-24T07:22:07.522Z,65.80
2023-05-24T07:23:05.779Z,65.23
2023-05-24T07:24:07.594Z,65.34
2023-05-24T07:25:05.691Z,66.89
2023-05-24T07:26:05.668Z,66.44
2023-05-24T07:27:05.651Z,65.79
2023-05-24T07:28:07.613Z,65.22
2023-05-24T07:29:08.528Z,64.15
2023-05-24T07:30:06.625Z,66.46
2023-05-24T07:31:05.809Z,64.40
2023-05-24T07:32:05.684Z,66.09
2023-05-24T07:33:05.657Z,65.33
2023-05-24T07:36:13.674Z,66.35
2023-05-24T07:37:13.626Z,67.51
2023-05-24T07:38:14.723Z,63.54
2023-05-24T07:39:15.297Z,64.78
2023-05-24T07:40:14.690Z,68.49
2023-05-24T07:41:14.703Z,67.20
2023-05-24T07:42:16.407Z,65.36
2023-05-24T07:43:14.667Z,66.25
2023-05-24T07:44:16.307Z,64.11
2023-05-24T07:45:14.692Z,65.53
2023-05-24T07:46:14.775Z,66.45
2023-05-24T07:47:14.673Z,64.83
2023-05-24T07:48:14.705Z,66.99
2023-05-24T07:49:17.386Z,63.73
2023-05-24T07:50:14.626Z,65.23
2023-05-24T07:51:15.616Z,66.31
2023-05-24T07:52:18.382Z,67.98
2023-05-24T07:53:14.612Z,67.11
2023-05-24T07:54:14.588Z,66.45
2023-05-24T07:55:14.588Z,65.39
2023-05-24T07:56:14.569Z,66.66
2023-05-24T07:57:14.566Z,64.88
2023-05-24T07:58:14.573Z,64.10
2023-05-24T07:59:14.560Z,65.00
2023-05-24T08:00:15.089Z,66.90
2023-05-24T08:01:14.561Z,67.62
2023-05-24T08:02:14.533Z,65.77
2023-05-24T08:03:14.756Z,66.11
2023-05-24T08:04:14.525Z,67.01
2023-05-24T08:05:14.511Z,65.77
2023-05-24T08:06:14.477Z,66.12
2023-05-24T08:07:15.521Z,65.80
2023-05-24T08:08:14.498Z,64.89
2023-05-24T08:09:14.488Z,62.09
2023-05-24T08:10:14.509Z,64.36
2023-05-24T08:11:14.465Z,65.63
2023-05-24T08:12:16.947Z,66.27
2023-05-24T08:13:15.443Z,64.66
2023-05-24T08:14:14.436Z,63.57
2023-05-24T08:15:14.439Z,65.23
2023-05-24T08:16:14.432Z,66.21
2023-05-24T08:17:17.552Z,64.83
2023-05-24T08:18:15.480Z,68.54
2023-05-24T08:19:14.385Z,65.01
2023-05-24T08:20:14.494Z,66.51
2023-05-24T08:21:14.842Z,66.28
2023-05-24T08:24:20.648Z,65.32
2023-05-24T08:25:21.737Z,68.22
2023-05-24T08:26:21.719Z,65.44
2023-05-24T08:27:21.710Z,66.20
2023-05-24T08:28:21.750Z,64.94
2023-05-24T08:29:22.594Z,65.98
2023-05-24T08:30:21.690Z,65.99
2023-05-24T08:31:21.742Z,64.57
2023-05-24T08:32:21.744Z,66.97
2023-05-24T08:33:21.684Z,66.47
2023-05-24T08:34:21.692Z,68.34
2023-05-24T08:35:22.276Z,66.38
2023-05-24T08:36:21.665Z,65.53
2023-05-24T08:37:21.646Z,67.96
2023-05-24T08:38:21.636Z,65.25
2023-05-24T08:39:22.587Z,63.12
2023-05-24T08:40:23.560Z,67.14
2023-05-24T08:41:22.521Z,66.78
2023-05-24T08:42:22.088Z,65.14
2023-05-24T08:43:21.592Z,64.79
2023-05-24T08:44:21.573Z,63.21
2023-05-24T08:45:21.557Z,65.90
2023-05-24T08:46:21.736Z,63.60
2023-05-24T08:47:22.538Z,63.91
2023-05-24T08:48:21.675Z,64.45
2023-05-24T08:49:21.542Z,69.36
2023-05-24T08:50:21.538Z,65.14
2023-05-24T08:51:21.542Z,67.27
2023-05-24T08:52:22.465Z,63.93
2023-05-24T08:53:23.119Z,65.89
2023-05-24T08:54:22.009Z,65.78
2023-05-24T08:55:21.508Z,63.62
2023-05-24T08:56:21.508Z,65.43
2023-05-24T08:57:23.093Z,65.83
2023-05-24T08:58:22.477Z,67.52
2023-05-24T08:59:24.085Z,64.75
2023-05-24T09:00:21.479Z,66.04
2023-05-24T09:01:21.553Z,64.85
2023-05-24T09:02:21.444Z,63.16
2023-05-24T09:03:23.087Z,64.53
2023-05-24T09:04:23.194Z,64.27
2023-05-24T09:05:21.408Z,64.37
2023-05-24T09:06:21.421Z,64.60
2023-05-24T09:07:21.422Z,65.30
2023-05-24T09:08:21.426Z,66.60
2023-05-24T09:09:22.033Z,64.28
2023-05-24T09:10:24.023Z,63.80
2023-05-24T09:11:23.096Z,64.90
2023-05-24T09:12:35.728Z,65.18
2023-05-24T09:13:23.361Z,67.67
2023-05-24T09:14:21.975Z,64.42
2023-05-24T09:15:21.347Z,64.66
2023-05-24T09:16:21.361Z,64.26
2023-05-24T09:17:21.336Z,64.18
2023-05-24T09:18:21.443Z,67.17
2023-05-24T09:19:21.358Z,67.58
2023-05-24T09:20:21.317Z,66.29
2023-05-24T09:21:22.100Z,66.47
2023-05-24T09:22:21.371Z,64.12
2023-05-24T09:23:21.291Z,64.18
2023-05-24T09:24:21.300Z,64.72
2023-05-24T09:25:21.262Z,65.66
2023-05-24T09:26:23.021Z,65.30
2023-05-24T09:27:21.273Z,66.18
2023-05-24T09:28:22.108Z,66.47
2023-05-24T09:29:22.016Z,65.44
2023-05-24T09:30:21.358Z,67.67
2023-05-24T09:31:21.273Z,65.04
2023-05-24T09:32:22.058Z,64.66
2023-05-24T09:33:21.206Z,65.57
2023-05-24T09:34:21.207Z,63.83
2023-05-24T09:35:23.536Z,66.64
2023-05-24T09:36:22.072Z,66.62
2023-05-24T09:37:27.388Z,67.74
2023-05-24T09:38:23.187Z,67.71
2023-05-24T09:39:23.055Z,63.89
2023-05-24T09:40:22.052Z,63.89
2023-05-24T09:41:22.115Z,62.93
2023-05-24T09:42:22.178Z,64.61
2023-05-24T09:43:21.365Z,64.63
2023-05-24T09:44:22.121Z,64.07
2023-05-24T09:45:21.109Z,63.95
2023-05-24T09:46:21.137Z,64.70
2023-05-24T09:47:22.231Z,63.63
2023-05-24T09:48:22.049Z,65.44
2023-05-24T09:49:22.040Z,65.13
2023-05-24T09:52:31.735Z,66.18
2023-05-24T09:53:30.147Z,65.47
2023-05-24T09:54:35.160Z,65.92
2023-05-24T09:55:30.118Z,64.46
2023-05-24T09:56:30.832Z,64.75
2023-05-24T09:57:30.174Z,65.39
2023-05-24T09:58:35.862Z,62.08
2023-05-24T09:59:34.356Z,63.98
2023-05-24T10:00:32.208Z,66.34
2023-05-24T10:01:34.892Z,64.61
2023-05-24T10:02:38.483Z,64.93
2023-05-24T10:03:33.220Z,64.47
2023-05-24T10:04:31.868Z,66.65
2023-05-24T10:05:31.957Z,63.90
2023-05-24T10:06:32.987Z,63.50
2023-05-24T10:07:31.116Z,64.76
2023-05-24T10:08:32.000Z,66.96
2023-05-24T10:09:31.139Z,67.00
2023-05-24T10:10:31.134Z,65.64
2023-05-24T10:11:31.104Z,63.04
2023-05-24T10:12:31.075Z,64.65
2023-05-24T10:13:34.819Z,65.68
2023-05-24T10:14:36.838Z,65.50
2023-05-24T21:21:42.295Z,59.78
2023-05-24T21:22:42.289Z,61.09
2023-05-24T21:23:42.359Z,54.39
2023-05-24T21:24:42.298Z,51.48
2023-05-24T21:25:42.434Z,58.97
2023-05-24T21:26:43.480Z,61.10
2023-05-24T21:27:43.352Z,57.75
2023-05-24T21:28:43.341Z,58.00
2023-05-24T21:29:44.313Z,56.98
2023-05-24T21:30:43.376Z,57.19
2023-05-24T21:31:43.429Z,57.95
2023-05-24T21:32:43.346Z,54.41
2023-05-24T21:33:43.311Z,53.24
2023-05-24T21:34:43.300Z,50.20
2023-05-24T21:35:43.566Z,53.02
2023-05-24T21:36:43.282Z,58.37
2023-05-24T21:37:43.264Z,55.34
2023-05-24T21:38:43.268Z,52.48
2023-05-24T21:39:43.265Z,62.56
2023-05-24T21:40:43.269Z,56.94
2023-05-24T21:41:43.265Z,59.48
2023-05-24T21:42:43.226Z,56.69
2023-05-24T21:43:43.250Z,52.25
2023-05-24T21:44:43.247Z,57.93
2023-05-24T21:45:43.514Z,60.19
2023-05-24T21:46:43.278Z,59.77
2023-05-24T21:47:43.209Z,58.73
2023-05-24T21:48:43.184Z,56.59
2023-05-24T21:49:43.178Z,50.99
2023-05-24T21:50:43.181Z,62.71
2023-05-24T21:51:43.166Z,60.87
2023-05-24T21:52:43.162Z,58.35
2023-05-24T21:53:43.140Z,59.02
2023-05-24T21:54:43.142Z,58.91
2023-05-24T21:55:43.258Z,57.85
2023-05-24T21:56:43.148Z,60.52
2023-05-24T21:57:43.166Z,58.68
2023-05-24T21:58:43.902Z,57.15
2023-05-24T21:59:43.893Z,43.86
2023-05-24T22:00:43.081Z,53.27
2023-05-24T22:01:43.104Z,52.64
2023-05-24T22:02:43.170Z,51.33
2023-05-24T22:03:43.154Z,59.27
2023-05-24T22:04:43.069Z,57.56
2023-05-24T22:05:43.179Z,57.47
2023-05-24T22:06:43.049Z,56.74
2023-05-24T22:07:43.039Z,54.68
2023-05-24T22:08:43.048Z,56.97
2023-05-24T22:09:43.011Z,52.77
2023-05-24T22:10:43.004Z,58.51
2023-05-24T22:11:43.035Z,60.43
2023-05-24T22:12:43.014Z,56.98
2023-05-24T22:13:43.019Z,56.99
2023-05-24T22:14:42.991Z,53.27
2023-05-24T22:15:43.162Z,55.24
2023-05-24T22:16:43.050Z,56.88
2023-05-24T22:17:43.919Z,55.17
2023-05-24T22:18:42.995Z,57.84
2023-05-24T22:19:42.976Z,61.40
2023-05-24T22:20:42.978Z,53.94
2023-05-24T22:23:50.580Z,50.84
2023-05-24T22:24:49.707Z,49.30
2023-05-24T22:25:49.706Z,49.96
2023-05-24T22:26:50.775Z,52.55
2023-05-24T22:27:50.797Z,56.44
2023-05-24T22:28:50.795Z,61.58
2023-05-24T22:29:50.774Z,53.65
2023-05-24T22:30:50.781Z,55.46
2023-05-24T22:31:50.827Z,59.05
2023-05-24T22:32:50.754Z,56.40
2023-05-24T22:33:50.731Z,54.48
2023-05-24T22:34:50.726Z,49.26
2023-05-24T22:35:50.711Z,47.75
2023-05-24T22:36:50.719Z,57.65
2023-05-24T22:37:50.696Z,55.73
2023-05-24T22:38:50.696Z,60.28
2023-05-24T22:39:50.689Z,54.40
2023-05-24T22:40:50.687Z,51.96
2023-05-24T22:41:50.698Z,57.25
2023-05-24T22:42:50.654Z,58.07
2023-05-24T22:43:50.665Z,47.98
2023-05-24T22:44:50.660Z,58.30
2023-05-24T22:45:50.698Z,54.94
2023-05-24T22:46:50.704Z,57.09
2023-05-24T22:47:50.650Z,60.32
2023-05-24T22:48:50.619Z,54.07
2023-05-24T22:49:50.608Z,54.13
2023-05-24T22:50:50.626Z,61.23
2023-05-24T22:51:50.664Z,49.66
2023-05-24T22:52:50.587Z,55.49
2023-05-24T22:53:50.590Z,49.83
2023-05-24T22:54:50.579Z,57.63
2023-05-24T22:55:50.568Z,63.43
2023-05-24T22:56:50.572Z,47.58
2023-05-24T22:57:50.547Z,48.53
2023-05-24T22:58:50.526Z,60.87
2023-05-24T22:59:50.533Z,54.65
2023-05-24T23:00:50.506Z,50.90
2023-05-24T23:01:50.638Z,57.64
2023-05-24T23:02:50.579Z,55.86
2023-05-24T23:03:50.567Z,60.83
2023-05-24T23:04:50.490Z,51.29
2023-05-24T23:05:50.504Z,56.53
2023-05-24T23:06:50.465Z,51.52
2023-05-24T23:07:50.476Z,57.80
2023-05-24T23:08:50.460Z,49.92
2023-05-24T23:09:51.181Z,60.71
2023-05-24T23:10:50.470Z,56.42
2023-05-24T23:11:50.452Z,55.15
2023-05-24T23:12:50.429Z,60.76
2023-05-24T23:13:50.422Z,46.91
2023-05-24T23:14:50.421Z,46.80
2023-05-24T23:15:50.422Z,59.94
2023-05-24T23:16:50.430Z,52.88
2023-05-24T23:17:50.442Z,49.94
2023-05-24T23:18:50.378Z,47.98
2023-05-24T23:19:50.622Z,54.58
2023-05-24T23:20:50.401Z,51.25
2023-05-24T23:21:50.372Z,49.69
2023-05-24T23:22:50.355Z,58.87
2023-05-24T23:23:50.352Z,52.94
2023-05-24T23:24:50.334Z,56.40
2023-05-24T23:25:50.326Z,54.89
2023-05-24T23:26:50.309Z,60.13
2023-05-24T23:27:50.427Z,55.00
2023-05-24T23:28:50.348Z,55.29
2023-05-24T23:29:50.292Z,62.21
2023-05-24T23:30:50.352Z,59.93
2023-05-24T23:31:50.481Z,53.55
2023-05-24T23:32:50.321Z,52.70
2023-05-24T23:33:50.279Z,49.49
2023-05-24T23:34:50.266Z,48.40
2023-05-24T23:35:50.240Z,58.41
2023-05-24T23:36:51.114Z,58.72
2023-05-24T23:37:50.265Z,50.22
2023-05-24T23:38:50.225Z,52.26
2023-05-24T23:39:50.203Z,57.97
2023-05-24T23:40:50.197Z,57.53
2023-05-24T23:41:50.199Z,48.06
2023-05-24T23:42:50.202Z,56.30
2023-05-24T23:43:50.198Z,54.30
2023-05-24T23:44:50.688Z,46.32
2023-05-24T23:45:50.163Z,48.76
2023-05-24T23:46:50.195Z,49.59
2023-05-24T23:47:50.167Z,57.40
2023-05-24T23:48:50.162Z,51.72
2023-05-24T23:49:51.090Z,52.02
2023-05-24T23:50:53.826Z,58.50
2023-05-24T23:51:51.127Z,49.33
2023-05-24T23:52:50.219Z,59.35
2023-05-24T23:53:50.116Z,50.11
2023-05-24T23:54:50.091Z,56.40
2023-05-24T23:55:50.093Z,50.17
2023-05-24T23:56:50.092Z,54.93
2023-05-24T23:57:50.094Z,56.73
2023-05-24T23:58:50.077Z,57.61
2023-05-24T23:59:50.047Z,54.75
